CheckWX is a tool to help pilots better visualize weather data.  It is not intended as a substitute for an official pre-flight weather briefing.

01:25:12 UTC

2J9 METAR
Quincy Municipal Airport
Quincy, Florida, USA
Current

10 mins ago

K2J9 240115Z AUTO 00000KT 10SM OVC039 17/05 A3022 RMK AO2
Observed
Mar-24 @ 01:15 UTC
Visibility
10 SM
Flight Rules
VFR
Cloud Levels
  • Overcast at 3,900' AGL
Temperature
17°C / 63°F
Dewpoint
C / 41°F
Humidity
45%
Altimeter
30.22" Hg
Pressure
1023.42 hPa
Previous

30 mins ago

K2J9 240055Z AUTO 21005KT 9SM SCT032 BKN040 BKN045 16/04 A3022 RMK AO2
Observed
Mar-24 @ 00:55 UTC
Wind
  • 210° at 5 KTS
Visibility
9 SM
Flight Rules
VFR
Cloud Levels
  • Scattered at 3,200' AGL
  • Broken at 4,000' AGL
  • Broken at 4,500' AGL
Temperature
16°C / 61°F
Dewpoint
C / 39°F
Humidity
45%
Altimeter
30.22" Hg
Pressure
1023.42 hPa
Previous

50 mins ago

K2J9 240035Z AUTO 02004KT 10SM BKN032 BKN038 BKN050 17/05 A3021 RMK AO2
Observed
Mar-24 @ 00:35 UTC
Wind
  • 020° at 4 KTS
Visibility
10 SM
Flight Rules
VFR
Cloud Levels
  • Broken at 3,200' AGL
  • Broken at 3,800' AGL
  • Broken at 5,000' AGL
Temperature
17°C / 63°F
Dewpoint
C / 41°F
Humidity
45%
Altimeter
30.21" Hg
Pressure
1023.02 hPa